sensor_id;sensor_type;location;lat;lon;timestamp;P1;durP1;ratioP1;P2;durP2;ratioP2
27269;SDS011;14769;56.934;24.176;2022-11-27T00:00:24;23.25;;;12.95;;
27269;SDS011;14769;56.934;24.176;2022-11-27T00:01:26;19.92;;;11.40;;
27269;SDS011;14769;56.934;24.176;2022-11-27T00:02:29;21.83;;;11.60;;
27269;SDS011;14769;56.934;24.176;2022-11-27T00:03:37;22.83;;;11.60;;
27269;SDS011;14769;56.934;24.176;2022-11-27T00:04:39;20.00;;;12.00;;
27269;SDS011;14769;56.934;24.176;2022-11-27T00:05:49;21.20;;;12.10;;
27269;SDS011;14769;56.934;24.176;2022-11-27T00:06:52;20.38;;;11.18;;
27269;SDS011;14769;56.934;24.176;2022-11-27T00:07:54;19.48;;;11.40;;
27269;SDS011;14769;56.934;24.176;2022-11-27T00:08:56;22.38;;;11.88;;
27269;SDS011;14769;56.934;24.176;2022-11-27T00:10:00;23.90;;;12.05;;
27269;SDS011;14769;56.934;24.176;2022-11-27T00:11:05;23.27;;;12.30;;
27269;SDS011;14769;56.934;24.176;2022-11-27T00:12:13;21.35;;;12.07;;
27269;SDS011;14769;56.934;24.176;2022-11-27T00:13:15;23.02;;;12.32;;
27269;SDS011;14769;56.934;24.176;2022-11-27T00:14:17;23.35;;;12.85;;
27269;SDS011;14769;56.934;24.176;2022-11-27T00:15:19;20.98;;;12.02;;
27269;SDS011;14769;56.934;24.176;2022-11-27T00:16:21;20.27;;;11.13;;
27269;SDS011;14769;56.934;24.176;2022-11-27T00:17:23;21.08;;;11.68;;
27269;SDS011;14769;56.934;24.176;2022-11-27T00:18:25;21.35;;;11.93;;
27269;SDS011;14769;56.934;24.176;2022-11-27T00:19:27;21.20;;;11.50;;
27269;SDS011;14769;56.934;24.176;2022-11-27T00:20:29;20.92;;;11.10;;
27269;SDS011;14769;56.934;24.176;2022-11-27T00:21:32;19.98;;;11.55;;
27269;SDS011;14769;56.934;24.176;2022-11-27T00:22:36;21.33;;;11.88;;
27269;SDS011;14769;56.934;24.176;2022-11-27T00:23:38;18.30;;;11.38;;
27269;SDS011;14769;56.934;24.176;2022-11-27T00:24:40;23.15;;;12.10;;
27269;SDS011;14769;56.934;24.176;2022-11-27T00:25:53;20.27;;;11.43;;
27269;SDS011;14769;56.934;24.176;2022-11-27T00:26:55;19.13;;;12.10;;
27269;SDS011;14769;56.934;24.176;2022-11-27T00:27:56;19.27;;;11.75;;
27269;SDS011;14769;56.934;24.176;2022-11-27T00:28:59;19.23;;;11.32;;
27269;SDS011;14769;56.934;24.176;2022-11-27T00:30:02;20.02;;;11.23;;
27269;SDS011;14769;56.934;24.176;2022-11-27T00:31:05;20.33;;;11.68;;
27269;SDS011;14769;56.934;24.176;2022-11-27T00:32:14;19.38;;;11.48;;
27269;SDS011;14769;56.934;24.176;2022-11-27T00:33:16;21.02;;;11.60;;
27269;SDS011;14769;56.934;24.176;2022-11-27T00:34:18;19.60;;;10.95;;
27269;SDS011;14769;56.934;24.176;2022-11-27T00:35:19;20.42;;;11.15;;
27269;SDS011;14769;56.934;24.176;2022-11-27T00:36:21;18.63;;;11.20;;
27269;SDS011;14769;56.934;24.176;2022-11-27T00:37:23;20.55;;;11.80;;
27269;SDS011;14769;56.934;24.176;2022-11-27T00:38:25;20.77;;;11.50;;
27269;SDS011;14769;56.934;24.176;2022-11-27T00:39:27;21.60;;;11.88;;
27269;SDS011;14769;56.934;24.176;2022-11-27T00:40:29;19.98;;;11.15;;
27269;SDS011;14769;56.934;24.176;2022-11-27T00:41:31;21.88;;;11.52;;
27269;SDS011;14769;56.934;24.176;2022-11-27T00:42:32;20.48;;;11.18;;
27269;SDS011;14769;56.934;24.176;2022-11-27T00:43:35;21.27;;;11.85;;
27269;SDS011;14769;56.934;24.176;2022-11-27T00:44:44;18.58;;;10.40;;
27269;SDS011;14769;56.934;24.176;2022-11-27T00:45:49;23.33;;;11.40;;
27269;SDS011;14769;56.934;24.176;2022-11-27T00:46:51;19.35;;;11.30;;
27269;SDS011;14769;56.934;24.176;2022-11-27T00:47:53;20.38;;;11.77;;
27269;SDS011;14769;56.934;24.176;2022-11-27T00:48:58;19.35;;;10.40;;
27269;SDS011;14769;56.934;24.176;2022-11-27T00:50:01;20.33;;;11.18;;
27269;SDS011;14769;56.934;24.176;2022-11-27T00:51:05;19.48;;;11.43;;
27269;SDS011;14769;56.934;24.176;2022-11-27T00:52:08;21.23;;;11.55;;
27269;SDS011;14769;56.934;24.176;2022-11-27T00:53:10;19.02;;;11.23;;
27269;SDS011;14769;56.934;24.176;2022-11-27T00:54:12;20.60;;;12.18;;
27269;SDS011;14769;56.934;24.176;2022-11-27T00:55:14;20.13;;;11.63;;
27269;SDS011;14769;56.934;24.176;2022-11-27T00:56:17;21.30;;;11.50;;
27269;SDS011;14769;56.934;24.176;2022-11-27T00:57:24;20.52;;;11.23;;
27269;SDS011;14769;56.934;24.176;2022-11-27T00:58:26;20.85;;;11.40;;
27269;SDS011;14769;56.934;24.176;2022-11-27T00:59:30;24.80;;;12.50;;
27269;SDS011;14769;56.934;24.176;2022-11-27T01:00:32;20.00;;;11.38;;
27269;SDS011;14769;56.934;24.176;2022-11-27T01:01:35;21.85;;;11.52;;
27269;SDS011;14769;56.934;24.176;2022-11-27T01:02:40;20.95;;;11.80;;
27269;SDS011;14769;56.934;24.176;2022-11-27T01:03:42;21.77;;;12.35;;
27269;SDS011;14769;56.934;24.176;2022-11-27T01:04:44;22.27;;;12.30;;
27269;SDS011;14769;56.934;24.176;2022-11-27T01:05:47;20.27;;;12.30;;
27269;SDS011;14769;56.934;24.176;2022-11-27T01:06:49;21.23;;;11.45;;
27269;SDS011;14769;56.934;24.176;2022-11-27T01:07:51;22.50;;;12.10;;
27269;SDS011;14769;56.934;24.176;2022-11-27T01:08:53;20.75;;;12.15;;
27269;SDS011;14769;56.934;24.176;2022-11-27T01:09:55;20.20;;;11.35;;
27269;SDS011;14769;56.934;24.176;2022-11-27T01:10:57;21.88;;;12.27;;
27269;SDS011;14769;56.934;24.176;2022-11-27T01:11:59;21.10;;;12.13;;
27269;SDS011;14769;56.934;24.176;2022-11-27T01:13:01;20.60;;;11.55;;
27269;SDS011;14769;56.934;24.176;2022-11-27T01:14:04;20.02;;;11.60;;
27269;SDS011;14769;56.934;24.176;2022-11-27T01:15:09;20.40;;;11.32;;
27269;SDS011;14769;56.934;24.176;2022-11-27T01:16:12;21.10;;;11.23;;
27269;SDS011;14769;56.934;24.176;2022-11-27T01:17:16;20.77;;;11.68;;
27269;SDS011;14769;56.934;24.176;2022-11-27T01:18:18;22.35;;;12.10;;
27269;SDS011;14769;56.934;24.176;2022-11-27T01:19:20;20.27;;;11.85;;
27269;SDS011;14769;56.934;24.176;2022-11-27T01:20:22;19.83;;;11.23;;
27269;SDS011;14769;56.934;24.176;2022-11-27T01:21:24;21.50;;;11.82;;
27269;SDS011;14769;56.934;24.176;2022-11-27T01:22:28;21.48;;;11.00;;
27269;SDS011;14769;56.934;24.176;2022-11-27T01:23:30;20.63;;;12.32;;
27269;SDS011;14769;56.934;24.176;2022-11-27T01:24:32;22.35;;;11.63;;
27269;SDS011;14769;56.934;24.176;2022-11-27T01:25:34;22.20;;;12.15;;
27269;SDS011;14769;56.934;24.176;2022-11-27T01:26:36;21.85;;;10.93;;
27269;SDS011;14769;56.934;24.176;2022-11-27T01:27:38;23.27;;;12.57;;
27269;SDS011;14769;56.934;24.176;2022-11-27T01:28:40;28.02;;;14.18;;
27269;SDS011;14769;56.934;24.176;2022-11-27T01:29:42;23.17;;;12.00;;
27269;SDS011;14769;56.934;24.176;2022-11-27T01:30:45;19.88;;;11.65;;
27269;SDS011;14769;56.934;24.176;2022-11-27T01:31:47;20.15;;;12.05;;
27269;SDS011;14769;56.934;24.176;2022-11-27T01:32:48;20.75;;;12.18;;
27269;SDS011;14769;56.934;24.176;2022-11-27T01:33:51;19.38;;;11.10;;
27269;SDS011;14769;56.934;24.176;2022-11-27T01:34:55;23.80;;;11.77;;
27269;SDS011;14769;56.934;24.176;2022-11-27T01:35:57;23.85;;;12.10;;
27269;SDS011;14769;56.934;24.176;2022-11-27T01:37:02;19.45;;;10.27;;
27269;SDS011;14769;56.934;24.176;2022-11-27T01:38:04;17.45;;;10.65;;
27269;SDS011;14769;56.934;24.176;2022-11-27T01:39:06;19.33;;;11.57;;
27269;SDS011;14769;56.934;24.176;2022-11-27T01:40:08;19.77;;;10.65;;
27269;SDS011;14769;56.934;24.176;2022-11-27T01:41:13;24.10;;;11.70;;
27269;SDS011;14769;56.934;24.176;2022-11-27T01:42:16;21.13;;;12.02;;
27269;SDS011;14769;56.934;24.176;2022-11-27T01:43:34;21.92;;;11.88;;
27269;SDS011;14769;56.934;24.176;2022-11-27T01:44:50;20.20;;;11.55;;
27269;SDS011;14769;56.934;24.176;2022-11-27T01:45:54;17.88;;;10.80;;
27269;SDS011;14769;56.934;24.176;2022-11-27T01:47:00;20.58;;;10.93;;
27269;SDS011;14769;56.934;24.176;2022-11-27T01:48:07;18.92;;;11.30;;
27269;SDS011;14769;56.934;24.176;2022-11-27T01:50:36;19.92;;;10.55;;
27269;SDS011;14769;56.934;24.176;2022-11-27T01:51:41;20.02;;;10.82;;
27269;SDS011;14769;56.934;24.176;2022-11-27T01:53:10;17.08;;;10.68;;
27269;SDS011;14769;56.934;24.176;2022-11-27T01:54:15;21.48;;;11.55;;
27269;SDS011;14769;56.934;24.176;2022-11-27T01:55:24;18.05;;;10.60;;
27269;SDS011;14769;56.934;24.176;2022-11-27T01:56:30;19.27;;;11.00;;
27269;SDS011;14769;56.934;24.176;2022-11-27T01:57:33;17.23;;;10.23;;
27269;SDS011;14769;56.934;24.176;2022-11-27T01:58:41;18.65;;;10.93;;
27269;SDS011;14769;56.934;24.176;2022-11-27T01:59:44;20.67;;;11.68;;
27269;SDS011;14769;56.934;24.176;2022-11-27T02:00:48;17.52;;;10.43;;
27269;SDS011;14769;56.934;24.176;2022-11-27T02:01:49;21.35;;;10.88;;
27269;SDS011;14769;56.934;24.176;2022-11-27T02:02:51;22.15;;;11.65;;
27269;SDS011;14769;56.934;24.176;2022-11-27T02:03:54;18.27;;;10.93;;
27269;SDS011;14769;56.934;24.176;2022-11-27T02:04:59;19.25;;;11.00;;
27269;SDS011;14769;56.934;24.176;2022-11-27T02:06:01;20.65;;;11.70;;
27269;SDS011;14769;56.934;24.176;2022-11-27T02:07:03;17.00;;;10.32;;
27269;SDS011;14769;56.934;24.176;2022-11-27T02:08:06;19.48;;;11.20;;
27269;SDS011;14769;56.934;24.176;2022-11-27T02:09:10;19.40;;;11.18;;
27269;SDS011;14769;56.934;24.176;2022-11-27T02:10:12;23.15;;;10.93;;
27269;SDS011;14769;56.934;24.176;2022-11-27T02:11:18;19.83;;;11.32;;
27269;SDS011;14769;56.934;24.176;2022-11-27T02:12:25;22.23;;;10.93;;
27269;SDS011;14769;56.934;24.176;2022-11-27T02:14:08;21.15;;;11.30;;
27269;SDS011;14769;56.934;24.176;2022-11-27T02:18:47;20.42;;;10.82;;
27269;SDS011;14769;56.934;24.176;2022-11-27T02:21:28;20.80;;;11.10;;
27269;SDS011;14769;56.934;24.176;2022-11-27T02:29:19;19.58;;;10.93;;
27269;SDS011;14769;56.934;24.176;2022-11-27T02:30:24;18.15;;;11.18;;
27269;SDS011;14769;56.934;24.176;2022-11-27T02:33:50;19.40;;;11.07;;
27269;SDS011;14769;56.934;24.176;2022-11-27T02:36:06;20.55;;;11.05;;
27269;SDS011;14769;56.934;24.176;2022-11-27T02:40:14;19.75;;;10.65;;
27269;SDS011;14769;56.934;24.176;2022-11-27T02:41:27;19.17;;;10.33;;
27269;SDS011;14769;56.934;24.176;2022-11-27T02:42:54;20.17;;;10.77;;
27269;SDS011;14769;56.934;24.176;2022-11-27T02:44:01;21.20;;;11.05;;
27269;SDS011;14769;56.934;24.176;2022-11-27T02:45:10;21.23;;;11.30;;
27269;SDS011;14769;56.934;24.176;2022-11-27T02:46:14;20.90;;;11.05;;
27269;SDS011;14769;56.934;24.176;2022-11-27T02:47:18;21.60;;;11.90;;
27269;SDS011;14769;56.934;24.176;2022-11-27T02:48:22;21.50;;;11.32;;
27269;SDS011;14769;56.934;24.176;2022-11-27T02:49:27;22.70;;;11.65;;
27269;SDS011;14769;56.934;24.176;2022-11-27T02:50:29;21.65;;;12.13;;
27269;SDS011;14769;56.934;24.176;2022-11-27T02:51:35;24.05;;;12.23;;
27269;SDS011;14769;56.934;24.176;2022-11-27T02:52:42;23.02;;;11.48;;
27269;SDS011;14769;56.934;24.176;2022-11-27T02:53:47;25.65;;;12.50;;
27269;SDS011;14769;56.934;24.176;2022-11-27T02:54:56;22.77;;;12.20;;
27269;SDS011;14769;56.934;24.176;2022-11-27T02:56:07;25.08;;;12.75;;
27269;SDS011;14769;56.934;24.176;2022-11-27T02:57:12;21.20;;;11.50;;
27269;SDS011;14769;56.934;24.176;2022-11-27T02:58:16;20.27;;;11.63;;
27269;SDS011;14769;56.934;24.176;2022-11-27T02:59:22;20.90;;;12.25;;
27269;SDS011;14769;56.934;24.176;2022-11-27T03:00:27;23.25;;;11.88;;
27269;SDS011;14769;56.934;24.176;2022-11-27T03:01:31;20.92;;;11.82;;
27269;SDS011;14769;56.934;24.176;2022-11-27T03:02:41;20.20;;;11.98;;
27269;SDS011;14769;56.934;24.176;2022-11-27T03:03:48;22.25;;;12.38;;
27269;SDS011;14769;56.934;24.176;2022-11-27T03:04:56;22.73;;;12.15;;
27269;SDS011;14769;56.934;24.176;2022-11-27T03:06:02;21.83;;;11.63;;
27269;SDS011;14769;56.934;24.176;2022-11-27T03:07:11;21.25;;;11.40;;
27269;SDS011;14769;56.934;24.176;2022-11-27T03:08:26;19.10;;;10.77;;
27269;SDS011;14769;56.934;24.176;2022-11-27T03:09:33;20.08;;;11.32;;
27269;SDS011;14769;56.934;24.176;2022-11-27T03:10:41;20.45;;;11.60;;
27269;SDS011;14769;56.934;24.176;2022-11-27T03:11:46;20.80;;;11.93;;
27269;SDS011;14769;56.934;24.176;2022-11-27T03:12:49;20.83;;;11.50;;
27269;SDS011;14769;56.934;24.176;2022-11-27T03:13:55;20.73;;;11.10;;
27269;SDS011;14769;56.934;24.176;2022-11-27T03:15:00;20.75;;;11.07;;
27269;SDS011;14769;56.934;24.176;2022-11-27T03:18:31;21.27;;;11.15;;
27269;SDS011;14769;56.934;24.176;2022-11-27T03:21:08;18.63;;;10.32;;
27269;SDS011;14769;56.934;24.176;2022-11-27T03:22:21;17.55;;;10.40;;
27269;SDS011;14769;56.934;24.176;2022-11-27T03:23:23;20.67;;;11.15;;
27269;SDS011;14769;56.934;24.176;2022-11-27T03:24:26;19.42;;;10.93;;
27269;SDS011;14769;56.934;24.176;2022-11-27T03:25:29;17.60;;;10.48;;
27269;SDS011;14769;56.934;24.176;2022-11-27T03:26:32;19.75;;;10.65;;
27269;SDS011;14769;56.934;24.176;2022-11-27T03:27:36;20.85;;;10.93;;
27269;SDS011;14769;56.934;24.176;2022-11-27T03:28:42;19.20;;;10.10;;
27269;SDS011;14769;56.934;24.176;2022-11-27T03:29:49;16.92;;;9.95;;
27269;SDS011;14769;56.934;24.176;2022-11-27T03:30:54;18.67;;;10.60;;
27269;SDS011;14769;56.934;24.176;2022-11-27T03:31:57;17.75;;;10.60;;
27269;SDS011;14769;56.934;24.176;2022-11-27T03:33:00;21.48;;;11.55;;
27269;SDS011;14769;56.934;24.176;2022-11-27T03:34:04;23.33;;;11.10;;
27269;SDS011;14769;56.934;24.176;2022-11-27T03:35:07;18.52;;;11.05;;
27269;SDS011;14769;56.934;24.176;2022-11-27T03:36:12;22.05;;;11.10;;
27269;SDS011;14769;56.934;24.176;2022-11-27T03:37:16;19.52;;;11.07;;
27269;SDS011;14769;56.934;24.176;2022-11-27T03:38:18;18.48;;;10.55;;
27269;SDS011;14769;56.934;24.176;2022-11-27T03:39:20;19.85;;;11.02;;
27269;SDS011;14769;56.934;24.176;2022-11-27T03:40:26;18.02;;;10.75;;
27269;SDS011;14769;56.934;24.176;2022-11-27T03:44:25;15.65;;;9.95;;
27269;SDS011;14769;56.934;24.176;2022-11-27T03:45:34;17.48;;;9.75;;
27269;SDS011;14769;56.934;24.176;2022-11-27T03:47:48;20.38;;;10.18;;
27269;SDS011;14769;56.934;24.176;2022-11-27T03:52:07;17.15;;;9.27;;
27269;SDS011;14769;56.934;24.176;2022-11-27T03:54:25;16.17;;;9.45;;
27269;SDS011;14769;56.934;24.176;2022-11-27T03:56:01;15.60;;;8.70;;
27269;SDS011;14769;56.934;24.176;2022-11-27T03:57:28;16.60;;;9.18;;
27269;SDS011;14769;56.934;24.176;2022-11-27T03:58:35;17.88;;;9.60;;
27269;SDS011;14769;56.934;24.176;2022-11-27T03:59:44;18.10;;;10.60;;
27269;SDS011;14769;56.934;24.176;2022-11-27T04:00:49;20.00;;;10.93;;
27269;SDS011;14769;56.934;24.176;2022-11-27T04:01:52;18.10;;;9.77;;
27269;SDS011;14769;56.934;24.176;2022-11-27T04:02:53;17.45;;;9.35;;
27269;SDS011;14769;56.934;24.176;2022-11-27T04:03:55;17.17;;;9.57;;
27269;SDS011;14769;56.934;24.176;2022-11-27T04:04:57;18.92;;;9.82;;
27269;SDS011;14769;56.934;24.176;2022-11-27T04:05:59;18.83;;;10.25;;
27269;SDS011;14769;56.934;24.176;2022-11-27T04:07:01;17.75;;;10.95;;
27269;SDS011;14769;56.934;24.176;2022-11-27T04:08:03;18.65;;;10.98;;
27269;SDS011;14769;56.934;24.176;2022-11-27T04:09:05;18.10;;;9.98;;
27269;SDS011;14769;56.934;24.176;2022-11-27T04:10:07;17.15;;;9.57;;
27269;SDS011;14769;56.934;24.176;2022-11-27T04:11:10;18.00;;;10.20;;
27269;SDS011;14769;56.934;24.176;2022-11-27T04:12:12;17.52;;;9.73;;
27269;SDS011;14769;56.934;24.176;2022-11-27T04:13:14;16.17;;;9.05;;
27269;SDS011;14769;56.934;24.176;2022-11-27T04:14:17;20.02;;;9.93;;
27269;SDS011;14769;56.934;24.176;2022-11-27T04:15:18;17.20;;;9.85;;
27269;SDS011;14769;56.934;24.176;2022-11-27T04:16:20;15.75;;;9.70;;
27269;SDS011;14769;56.934;24.176;2022-11-27T04:17:22;17.48;;;10.27;;
27269;SDS011;14769;56.934;24.176;2022-11-27T04:18:24;18.90;;;10.13;;
27269;SDS011;14769;56.934;24.176;2022-11-27T04:19:26;18.67;;;10.38;;
27269;SDS011;14769;56.934;24.176;2022-11-27T04:20:28;18.50;;;10.68;;
27269;SDS011;14769;56.934;24.176;2022-11-27T04:21:30;18.60;;;10.68;;
27269;SDS011;14769;56.934;24.176;2022-11-27T04:22:32;21.73;;;11.18;;
27269;SDS011;14769;56.934;24.176;2022-11-27T04:23:34;30.90;;;14.98;;
27269;SDS011;14769;56.934;24.176;2022-11-27T04:24:37;40.70;;;20.38;;
27269;SDS011;14769;56.934;24.176;2022-11-27T04:25:39;39.97;;;19.92;;
27269;SDS011;14769;56.934;24.176;2022-11-27T04:26:41;36.25;;;17.88;;
27269;SDS011;14769;56.934;24.176;2022-11-27T04:27:43;36.05;;;17.80;;
27269;SDS011;14769;56.934;24.176;2022-11-27T04:28:45;18.83;;;11.27;;
27269;SDS011;14769;56.934;24.176;2022-11-27T04:29:47;23.42;;;12.00;;
27269;SDS011;14769;56.934;24.176;2022-11-27T04:30:49;22.70;;;11.25;;
27269;SDS011;14769;56.934;24.176;2022-11-27T04:31:53;18.23;;;10.48;;
27269;SDS011;14769;56.934;24.176;2022-11-27T04:32:54;18.55;;;10.85;;
27269;SDS011;14769;56.934;24.176;2022-11-27T04:33:56;15.80;;;9.10;;
27269;SDS011;14769;56.934;24.176;2022-11-27T04:34:58;24.52;;;12.45;;
27269;SDS011;14769;56.934;24.176;2022-11-27T04:36:00;21.70;;;12.88;;
27269;SDS011;14769;56.934;24.176;2022-11-27T04:37:02;20.65;;;12.27;;
27269;SDS011;14769;56.934;24.176;2022-11-27T04:38:03;23.33;;;13.38;;
27269;SDS011;14769;56.934;24.176;2022-11-27T04:39:05;18.15;;;10.75;;
27269;SDS011;14769;56.934;24.176;2022-11-27T04:40:07;22.17;;;11.75;;
27269;SDS011;14769;56.934;24.176;2022-11-27T04:41:09;24.80;;;14.35;;
27269;SDS011;14769;56.934;24.176;2022-11-27T04:42:11;25.08;;;13.68;;
27269;SDS011;14769;56.934;24.176;2022-11-27T04:43:13;21.42;;;12.05;;
27269;SDS011;14769;56.934;24.176;2022-11-27T04:44:15;23.50;;;13.00;;
27269;SDS011;14769;56.934;24.176;2022-11-27T04:45:17;18.23;;;9.98;;
27269;SDS011;14769;56.934;24.176;2022-11-27T04:46:19;19.33;;;10.40;;
27269;SDS011;14769;56.934;24.176;2022-11-27T04:47:21;18.58;;;9.77;;
27269;SDS011;14769;56.934;24.176;2022-11-27T04:48:23;21.67;;;11.52;;
27269;SDS011;14769;56.934;24.176;2022-11-27T04:49:25;24.77;;;12.45;;
27269;SDS011;14769;56.934;24.176;2022-11-27T04:50:27;21.95;;;11.40;;
27269;SDS011;14769;56.934;24.176;2022-11-27T04:51:29;18.13;;;10.88;;
27269;SDS011;14769;56.934;24.176;2022-11-27T04:52:31;20.42;;;10.52;;
27269;SDS011;14769;56.934;24.176;2022-11-27T04:53:33;17.23;;;9.52;;
27269;SDS011;14769;56.934;24.176;2022-11-27T04:54:35;16.10;;;9.07;;
27269;SDS011;14769;56.934;24.176;2022-11-27T04:55:37;18.65;;;9.90;;
27269;SDS011;14769;56.934;24.176;2022-11-27T04:56:38;20.27;;;10.02;;
27269;SDS011;14769;56.934;24.176;2022-11-27T04:57:40;15.68;;;9.07;;
27269;SDS011;14769;56.934;24.176;2022-11-27T04:58:42;15.75;;;9.25;;
27269;SDS011;14769;56.934;24.176;2022-11-27T04:59:44;13.40;;;8.60;;
27269;SDS011;14769;56.934;24.176;2022-11-27T05:00:46;15.07;;;8.85;;
27269;SDS011;14769;56.934;24.176;2022-11-27T05:01:48;14.13;;;8.50;;
27269;SDS011;14769;56.934;24.176;2022-11-27T05:02:50;17.38;;;9.85;;
27269;SDS011;14769;56.934;24.176;2022-11-27T05:03:52;15.40;;;9.30;;
27269;SDS011;14769;56.934;24.176;2022-11-27T05:04:54;16.63;;;9.45;;
27269;SDS011;14769;56.934;24.176;2022-11-27T05:05:56;15.75;;;9.50;;
27269;SDS011;14769;56.934;24.176;2022-11-27T05:06:58;14.50;;;8.88;;
27269;SDS011;14769;56.934;24.176;2022-11-27T05:08:00;12.85;;;8.20;;
27269;SDS011;14769;56.934;24.176;2022-11-27T05:09:02;15.77;;;9.30;;
27269;SDS011;14769;56.934;24.176;2022-11-27T05:10:04;15.52;;;8.80;;
27269;SDS011;14769;56.934;24.176;2022-11-27T05:11:07;14.48;;;9.20;;
27269;SDS011;14769;56.934;24.176;2022-11-27T05:12:12;14.18;;;9.02;;
27269;SDS011;14769;56.934;24.176;2022-11-27T05:13:14;15.00;;;8.77;;
27269;SDS011;14769;56.934;24.176;2022-11-27T05:14:16;17.73;;;9.70;;
27269;SDS011;14769;56.934;24.176;2022-11-27T05:15:22;17.60;;;9.73;;
27269;SDS011;14769;56.934;24.176;2022-11-27T05:16:23;20.73;;;11.32;;
27269;SDS011;14769;56.934;24.176;2022-11-27T05:17:25;19.55;;;11.23;;
27269;SDS011;14769;56.934;24.176;2022-11-27T05:18:27;17.98;;;10.43;;
27269;SDS011;14769;56.934;24.176;2022-11-27T05:19:29;19.15;;;10.35;;
27269;SDS011;14769;56.934;24.176;2022-11-27T05:20:31;15.63;;;9.73;;
27269;SDS011;14769;56.934;24.176;2022-11-27T05:21:33;19.80;;;10.70;;
27269;SDS011;14769;56.934;24.176;2022-11-27T05:22:35;18.75;;;10.93;;
27269;SDS011;14769;56.934;24.176;2022-11-27T05:23:37;20.55;;;11.18;;
27269;SDS011;14769;56.934;24.176;2022-11-27T05:24:39;20.52;;;11.55;;
27269;SDS011;14769;56.934;24.176;2022-11-27T05:25:41;21.05;;;11.85;;
27269;SDS011;14769;56.934;24.176;2022-11-27T05:26:43;21.63;;;11.75;;
27269;SDS011;14769;56.934;24.176;2022-11-27T05:27:45;22.25;;;11.68;;
27269;SDS011;14769;56.934;24.176;2022-11-27T05:28:47;22.13;;;12.23;;
27269;SDS011;14769;56.934;24.176;2022-11-27T05:29:49;23.13;;;13.27;;
27269;SDS011;14769;56.934;24.176;2022-11-27T05:30:50;24.10;;;12.95;;
27269;SDS011;14769;56.934;24.176;2022-11-27T05:31:52;21.90;;;14.07;;
27269;SDS011;14769;56.934;24.176;2022-11-27T05:32:54;21.25;;;12.55;;
27269;SDS011;14769;56.934;24.176;2022-11-27T05:33:56;23.45;;;12.25;;
27269;SDS011;14769;56.934;24.176;2022-11-27T05:34:58;19.33;;;10.95;;
27269;SDS011;14769;56.934;24.176;2022-11-27T05:36:00;18.20;;;9.80;;
27269;SDS011;14769;56.934;24.176;2022-11-27T05:37:01;15.88;;;9.40;;
27269;SDS011;14769;56.934;24.176;2022-11-27T05:38:03;16.60;;;9.43;;
27269;SDS011;14769;56.934;24.176;2022-11-27T05:39:05;17.55;;;10.02;;
27269;SDS011;14769;56.934;24.176;2022-11-27T05:40:08;16.20;;;9.10;;
27269;SDS011;14769;56.934;24.176;2022-11-27T05:41:10;14.73;;;8.93;;
27269;SDS011;14769;56.934;24.176;2022-11-27T05:42:12;14.80;;;9.15;;
27269;SDS011;14769;56.934;24.176;2022-11-27T05:43:14;16.95;;;9.90;;
27269;SDS011;14769;56.934;24.176;2022-11-27T05:44:16;18.92;;;10.13;;
27269;SDS011;14769;56.934;24.176;2022-11-27T05:45:18;17.05;;;10.48;;
27269;SDS011;14769;56.934;24.176;2022-11-27T05:46:20;14.65;;;9.35;;
27269;SDS011;14769;56.934;24.176;2022-11-27T05:47:23;16.33;;;9.63;;
27269;SDS011;14769;56.934;24.176;2022-11-27T05:48:24;16.23;;;9.75;;
27269;SDS011;14769;56.934;24.176;2022-11-27T05:49:26;14.25;;;8.95;;
27269;SDS011;14769;56.934;24.176;2022-11-27T05:50:28;15.60;;;9.23;;
27269;SDS011;14769;56.934;24.176;2022-11-27T05:51:30;13.55;;;8.75;;
27269;SDS011;14769;56.934;24.176;2022-11-27T05:52:32;17.33;;;9.82;;
27269;SDS011;14769;56.934;24.176;2022-11-27T05:53:34;15.38;;;9.15;;
27269;SDS011;14769;56.934;24.176;2022-11-27T05:54:36;14.82;;;8.48;;
27269;SDS011;14769;56.934;24.176;2022-11-27T05:55:39;13.80;;;8.75;;
27269;SDS011;14769;56.934;24.176;2022-11-27T05:56:41;13.32;;;8.50;;
27269;SDS011;14769;56.934;24.176;2022-11-27T05:57:42;14.18;;;7.88;;
27269;SDS011;14769;56.934;24.176;2022-11-27T05:58:45;17.02;;;9.13;;
27269;SDS011;14769;56.934;24.176;2022-11-27T05:59:48;14.00;;;8.30;;
27269;SDS011;14769;56.934;24.176;2022-11-27T06:00:50;14.82;;;8.50;;
27269;SDS011;14769;56.934;24.176;2022-11-27T06:01:52;15.90;;;9.15;;
27269;SDS011;14769;56.934;24.176;2022-11-27T06:02:54;14.77;;;9.07;;
27269;SDS011;14769;56.934;24.176;2022-11-27T06:03:56;14.63;;;9.00;;
27269;SDS011;14769;56.934;24.176;2022-11-27T06:04:58;13.80;;;8.82;;
27269;SDS011;14769;56.934;24.176;2022-11-27T06:06:10;14.10;;;8.63;;
27269;SDS011;14769;56.934;24.176;2022-11-27T06:07:15;14.02;;;8.30;;
27269;SDS011;14769;56.934;24.176;2022-11-27T06:08:18;13.25;;;8.30;;
27269;SDS011;14769;56.934;24.176;2022-11-27T06:09:20;14.57;;;9.60;;
27269;SDS011;14769;56.934;24.176;2022-11-27T06:10:22;13.82;;;8.82;;
27269;SDS011;14769;56.934;24.176;2022-11-27T06:11:23;14.32;;;8.10;;
27269;SDS011;14769;56.934;24.176;2022-11-27T06:12:26;15.43;;;8.98;;
27269;SDS011;14769;56.934;24.176;2022-11-27T06:13:28;14.40;;;9.10;;
27269;SDS011;14769;56.934;24.176;2022-11-27T06:14:29;16.17;;;9.65;;
27269;SDS011;14769;56.934;24.176;2022-11-27T06:15:32;15.88;;;8.52;;
27269;SDS011;14769;56.934;24.176;2022-11-27T06:16:33;15.07;;;8.32;;
27269;SDS011;14769;56.934;24.176;2022-11-27T06:17:35;14.30;;;8.63;;
27269;SDS011;14769;56.934;24.176;2022-11-27T06:18:37;13.70;;;8.80;;
27269;SDS011;14769;56.934;24.176;2022-11-27T06:19:39;14.50;;;9.32;;
27269;SDS011;14769;56.934;24.176;2022-11-27T06:20:42;14.82;;;9.23;;
27269;SDS011;14769;56.934;24.176;2022-11-27T06:21:47;17.50;;;9.23;;
27269;SDS011;14769;56.934;24.176;2022-11-27T06:22:49;13.15;;;8.50;;
27269;SDS011;14769;56.934;24.176;2022-11-27T06:23:54;14.18;;;9.10;;
27269;SDS011;14769;56.934;24.176;2022-11-27T06:24:56;17.95;;;9.70;;
27269;SDS011;14769;56.934;24.176;2022-11-27T06:26:07;15.70;;;9.73;;
27269;SDS011;14769;56.934;24.176;2022-11-27T06:27:19;16.73;;;9.73;;
27269;SDS011;14769;56.934;24.176;2022-11-27T06:28:21;17.20;;;9.63;;
27269;SDS011;14769;56.934;24.176;2022-11-27T06:29:22;18.05;;;10.23;;
27269;SDS011;14769;56.934;24.176;2022-11-27T06:30:24;16.60;;;9.50;;
27269;SDS011;14769;56.934;24.176;2022-11-27T06:31:27;15.25;;;9.63;;
27269;SDS011;14769;56.934;24.176;2022-11-27T06:32:31;18.35;;;9.90;;
27269;SDS011;14769;56.934;24.176;2022-11-27T06:33:33;14.70;;;9.60;;
27269;SDS011;14769;56.934;24.176;2022-11-27T06:34:35;14.95;;;9.68;;
27269;SDS011;14769;56.934;24.176;2022-11-27T06:35:37;15.70;;;9.23;;
27269;SDS011;14769;56.934;24.176;2022-11-27T06:36:38;14.65;;;9.15;;
27269;SDS011;14769;56.934;24.176;2022-11-27T06:37:41;15.32;;;9.32;;
27269;SDS011;14769;56.934;24.176;2022-11-27T06:38:43;18.33;;;9.07;;
27269;SDS011;14769;56.934;24.176;2022-11-27T06:39:46;13.77;;;8.63;;
27269;SDS011;14769;56.934;24.176;2022-11-27T06:40:49;15.13;;;8.88;;
27269;SDS011;14769;56.934;24.176;2022-11-27T06:41:51;12.88;;;7.97;;